createdAt,value
2022-12-05T00:02:54.122Z,140.80
2022-12-05T00:05:52.045Z,119.57
2022-12-05T00:08:50.426Z,134.30
2022-12-05T00:11:48.512Z,147.47
2022-12-05T00:14:46.426Z,142.70
2022-12-05T00:17:44.336Z,159.20
2022-12-05T00:20:46.945Z,137.43
2022-12-05T00:23:44.851Z,157.82
2022-12-05T00:26:42.833Z,181.27
2022-12-05T00:29:40.773Z,181.97
2022-12-05T00:32:38.744Z,175.40
2022-12-05T00:35:36.751Z,171.87
2022-12-05T00:38:34.829Z,203.40
2022-12-05T00:41:32.511Z,174.43
2022-12-05T00:44:30.342Z,177.07
2022-12-05T00:47:28.298Z,176.17
2022-12-05T00:50:26.029Z,187.23
2022-12-05T00:53:23.746Z,190.50
2022-12-05T00:56:24.113Z,179.03
2022-12-05T00:59:21.888Z,194.30
2022-12-05T01:02:19.627Z,216.80
2022-12-05T01:05:17.540Z,185.60
2022-12-05T01:08:15.341Z,188.67
2022-12-05T01:11:16.672Z,201.70
2022-12-05T01:14:16.300Z,189.47
2022-12-05T01:17:13.938Z,204.17
2022-12-05T01:20:12.110Z,197.13
2022-12-05T01:23:10.555Z,198.67
2022-12-05T01:26:11.175Z,176.17
2022-12-05T01:29:09.304Z,171.33
2022-12-05T01:32:07.485Z,163.47
2022-12-05T01:35:05.789Z,151.83
2022-12-05T01:38:04.542Z,134.37
2022-12-05T01:41:04.392Z,146.50
2022-12-05T01:44:19.202Z,149.97
2022-12-05T01:47:19.304Z,144.20
2022-12-05T01:50:17.506Z,133.23
2022-12-05T01:53:16.727Z,136.43
2022-12-05T01:56:15.093Z,138.60
2022-12-05T01:59:14.031Z,133.77
2022-12-05T02:02:12.984Z,128.57
2022-12-05T02:05:18.258Z,133.27
2022-12-05T02:08:16.060Z,143.17
2022-12-05T02:11:14.043Z,143.20
2022-12-05T02:14:45.237Z,126.93
2022-12-05T02:18:10.715Z,121.63
2022-12-05T02:21:35.965Z,125.83
2022-12-05T02:24:59.064Z,145.27
2022-12-05T02:28:28.121Z,140.63
2022-12-05T02:31:38.716Z,153.63
2022-12-05T02:34:55.716Z,162.77
2022-12-05T02:38:04.680Z,155.37
2022-12-05T02:41:23.315Z,167.00
2022-12-05T02:44:31.181Z,152.00
2022-12-05T02:47:31.868Z,138.53
2022-12-05T02:50:34.668Z,127.20
2022-12-05T02:53:33.455Z,150.68
2022-12-05T02:56:35.156Z,161.63
2022-12-05T02:59:33.093Z,167.70
2022-12-05T03:02:35.358Z,162.70
2022-12-05T03:05:44.031Z,170.37
2022-12-05T03:09:02.231Z,162.63
2022-12-05T03:12:13.887Z,149.10
2022-12-05T03:15:18.057Z,175.63
2022-12-05T03:18:27.231Z,191.03
2022-12-05T03:21:37.674Z,157.87
2022-12-05T03:24:38.700Z,176.23
2022-12-05T03:27:50.676Z,172.87
2022-12-05T03:30:51.411Z,174.73
2022-12-05T03:33:52.154Z,164.83
2022-12-05T03:36:53.215Z,180.43
2022-12-05T03:40:01.654Z,189.57
2022-12-05T03:43:19.052Z,169.60
2022-12-05T03:46:29.710Z,167.77
2022-12-05T03:49:46.152Z,157.57
2022-12-05T03:53:18.150Z,160.77
2022-12-05T03:56:17.039Z,188.80
2022-12-05T03:59:23.200Z,160.43
2022-12-05T04:02:29.174Z,174.00
2022-12-05T04:05:45.565Z,181.97
2022-12-05T04:08:53.075Z,193.17
2022-12-05T04:11:58.203Z,195.50
2022-12-05T04:15:00.965Z,186.57
2022-12-05T04:18:00.815Z,186.85
2022-12-05T04:21:14.594Z,183.17
2022-12-05T04:24:34.130Z,206.00
2022-12-05T04:28:02.642Z,201.27
2022-12-05T04:31:09.577Z,200.10
2022-12-05T04:34:10.823Z,171.17
2022-12-05T04:37:15.721Z,195.63
2022-12-05T04:40:21.019Z,170.37
2022-12-05T04:43:21.013Z,198.35
2022-12-05T04:46:21.530Z,192.17
2022-12-05T04:49:24.411Z,175.65
2022-12-05T04:52:23.197Z,184.02
2022-12-05T04:55:26.435Z,192.90
2022-12-05T04:58:26.568Z,180.85
2022-12-05T05:01:34.795Z,188.10
2022-12-05T05:04:37.827Z,177.43
2022-12-05T05:07:45.052Z,188.00
2022-12-05T05:10:51.652Z,175.98
2022-12-05T05:13:49.826Z,203.43
2022-12-05T05:16:48.060Z,174.25
2022-12-05T05:19:46.028Z,198.40
2022-12-05T05:22:43.895Z,175.30
2022-12-05T05:25:41.501Z,173.20
2022-12-05T05:28:39.492Z,164.98
2022-12-05T05:31:37.978Z,184.55
2022-12-05T05:34:35.886Z,181.00
2022-12-05T05:37:33.623Z,161.13
2022-12-05T05:40:31.572Z,175.38
2022-12-05T05:43:29.289Z,156.80
2022-12-05T05:46:30.280Z,172.07
2022-12-05T05:49:27.965Z,176.07
2022-12-05T05:52:25.702Z,190.00
2022-12-05T05:55:23.378Z,180.10
2022-12-05T05:58:24.047Z,187.52
2022-12-05T06:01:22.038Z,171.30
2022-12-05T06:04:20.008Z,166.85
2022-12-05T06:07:17.844Z,179.15
2022-12-05T06:10:15.571Z,165.45
2022-12-05T06:13:13.303Z,172.13
2022-12-05T06:16:14.360Z,164.65
2022-12-05T06:19:12.061Z,170.75
2022-12-05T06:22:10.068Z,176.85
2022-12-05T06:25:09.106Z,165.65
2022-12-05T06:28:06.978Z,160.65
2022-12-05T06:31:11.074Z,160.13
2022-12-05T06:34:08.904Z,164.75
2022-12-05T06:37:06.727Z,176.45
2022-12-05T06:40:05.248Z,176.68
2022-12-05T06:43:02.850Z,167.13
2022-12-05T06:46:01.054Z,176.98
2022-12-05T06:48:59.619Z,195.02
2022-12-05T06:51:57.382Z,187.10
2022-12-05T06:54:55.473Z,197.43
2022-12-05T06:57:53.287Z,192.00
2022-12-05T07:01:06.423Z,191.13
2022-12-05T07:04:05.186Z,170.98
2022-12-05T07:07:03.063Z,183.10
2022-12-05T07:10:01.011Z,165.50
2022-12-05T07:12:58.948Z,177.13
2022-12-05T07:15:58.950Z,182.00
2022-12-05T07:18:57.783Z,172.25
2022-12-05T07:21:55.415Z,170.32
2022-12-05T07:24:53.814Z,165.68
2022-12-05T07:27:51.784Z,154.25
2022-12-05T07:30:49.530Z,163.10
2022-12-05T07:33:47.303Z,156.57
2022-12-05T07:36:45.009Z,163.55
2022-12-05T07:39:42.614Z,151.65
2022-12-05T07:42:40.396Z,148.77
2022-12-05T07:45:38.136Z,146.55
2022-12-05T07:48:35.957Z,145.93
2022-12-05T07:51:34.293Z,141.02
2022-12-05T07:54:32.123Z,169.18
2022-12-05T07:57:31.871Z,149.13
2022-12-05T08:00:29.746Z,170.68
2022-12-05T08:03:27.519Z,160.00
2022-12-05T08:06:29.405Z,172.68
2022-12-05T08:09:27.767Z,152.88
2022-12-05T08:12:25.637Z,156.70
2022-12-05T08:15:23.519Z,164.70
2022-12-05T08:18:27.096Z,152.05
2022-12-05T08:21:26.613Z,149.07
2022-12-05T08:24:25.688Z,147.77
2022-12-05T08:27:23.651Z,155.48
2022-12-05T08:30:21.469Z,163.98
2022-12-05T08:33:19.284Z,185.27
2022-12-05T08:36:18.159Z,161.45
2022-12-05T08:39:18.353Z,169.80
2022-12-05T08:42:16.074Z,163.52
2022-12-05T08:45:13.938Z,159.90
2022-12-05T08:48:11.638Z,170.80
2022-12-05T08:51:11.616Z,164.43
2022-12-05T08:54:09.634Z,162.68
2022-12-05T08:57:07.369Z,164.85
2022-12-05T09:00:07.116Z,161.10
2022-12-05T09:03:05.114Z,167.60
2022-12-05T09:06:20.047Z,170.25
2022-12-05T09:09:18.253Z,179.35
2022-12-05T09:12:16.242Z,172.57
2022-12-05T09:15:14.136Z,168.20
2022-12-05T09:18:13.278Z,189.82
2022-12-05T09:21:13.696Z,192.05
2022-12-05T09:24:13.333Z,157.52
2022-12-05T09:27:11.547Z,199.80
2022-12-05T09:30:10.195Z,185.45
2022-12-05T09:33:08.076Z,163.30
2022-12-05T09:36:08.678Z,180.40
2022-12-05T09:39:07.659Z,169.35
2022-12-05T09:42:30.013Z,172.10
2022-12-05T09:45:37.559Z,170.15
2022-12-05T09:48:35.919Z,188.52
2022-12-05T09:51:34.522Z,165.18
2022-12-05T09:54:33.142Z,178.38
2022-12-05T09:57:36.882Z,175.32
2022-12-05T10:00:35.017Z,175.10
2022-12-05T10:03:43.713Z,181.80
2022-12-05T10:06:54.936Z,188.90
2022-12-05T10:10:20.874Z,174.43
2022-12-05T10:13:34.480Z,166.35
2022-12-05T10:16:38.159Z,197.60
2022-12-05T10:19:42.837Z,173.88
2022-12-05T10:22:50.817Z,176.60
2022-12-05T10:25:52.865Z,174.60
2022-12-05T10:29:21.821Z,180.00
2022-12-05T10:32:24.611Z,169.82
2022-12-05T10:35:32.014Z,172.82
2022-12-05T10:38:31.966Z,188.90
2022-12-05T10:41:29.794Z,180.50
2022-12-05T10:44:27.784Z,180.00
2022-12-05T10:47:25.805Z,164.57
2022-12-05T10:50:30.118Z,212.10
2022-12-05T10:53:33.411Z,183.57
2022-12-05T10:56:48.984Z,188.73
2022-12-05T10:59:48.225Z,187.77
2022-12-05T11:02:49.354Z,191.98
2022-12-05T11:05:51.386Z,180.98
2022-12-05T11:09:06.611Z,177.05
2022-12-05T11:12:31.606Z,190.98
2022-12-05T11:15:31.632Z,182.20
2022-12-05T11:18:33.520Z,178.98
2022-12-05T11:21:43.595Z,190.83
2022-12-05T11:24:41.225Z,173.60
2022-12-05T11:27:38.965Z,183.40
2022-12-05T11:30:36.701Z,190.77
2022-12-05T11:33:36.777Z,191.30
2022-12-05T11:36:41.909Z,177.57
2022-12-05T11:39:40.045Z,176.13
2022-12-05T11:43:01.610Z,190.87
2022-12-05T11:46:27.008Z,188.60
2022-12-05T11:49:40.696Z,187.83
2022-12-05T11:52:57.014Z,181.03
2022-12-05T11:56:09.717Z,186.70
2022-12-05T11:59:43.187Z,195.80
2022-12-05T12:03:06.999Z,197.38
2022-12-05T12:06:24.346Z,174.45
2022-12-05T12:09:44.711Z,193.37
2022-12-05T12:13:11.973Z,189.65
2022-12-05T12:16:20.317Z,162.40
2022-12-05T12:19:43.143Z,192.23
2022-12-05T12:23:11.633Z,174.53
2022-12-05T12:26:31.238Z,155.07
2022-12-05T12:29:56.290Z,163.43
2022-12-05T12:33:14.389Z,215.25
2022-12-05T12:36:39.864Z,181.60
2022-12-05T12:39:59.443Z,166.40
2022-12-05T12:43:52.092Z,178.63
2022-12-05T12:50:09.533Z,155.73
2022-12-05T12:53:33.500Z,149.77
2022-12-05T12:56:40.096Z,164.07
2022-12-05T12:59:59.727Z,149.73
2022-12-05T13:03:08.497Z,158.50
2022-12-05T13:06:16.248Z,154.60
2022-12-05T13:09:29.805Z,167.57
2022-12-05T13:12:32.945Z,153.48
2022-12-05T13:15:45.193Z,151.75
2022-12-05T13:18:43.310Z,169.02
2022-12-05T13:21:41.248Z,153.38
2022-12-05T13:24:39.214Z,167.03
2022-12-05T13:27:37.965Z,151.00
2022-12-05T13:30:55.956Z,159.05
2022-12-05T13:33:54.163Z,150.82
2022-12-05T13:37:07.312Z,152.73
2022-12-05T13:40:21.586Z,164.20
2022-12-05T13:43:23.120Z,154.37
2022-12-05T13:46:34.012Z,167.53
2022-12-05T13:49:51.548Z,153.10
2022-12-05T13:52:55.893Z,157.05
2022-12-05T13:56:05.836Z,156.25
2022-12-05T13:59:04.458Z,188.82
2022-12-05T14:02:02.757Z,170.00
2022-12-05T14:05:00.612Z,155.90
2022-12-05T14:08:03.568Z,152.90
2022-12-05T14:14:11.792Z,170.13
2022-12-05T14:17:09.763Z,174.07
2022-12-05T14:20:30.835Z,171.27
2022-12-05T14:23:52.380Z,168.32
2022-12-05T14:27:08.976Z,174.77
2022-12-05T14:30:28.832Z,159.18
2022-12-05T14:33:27.034Z,176.03
2022-12-05T14:36:31.246Z,181.05
2022-12-05T14:39:44.562Z,175.67
2022-12-05T14:42:53.278Z,188.63
2022-12-05T14:46:02.203Z,186.70
2022-12-05T14:49:38.094Z,197.17
2022-12-05T14:52:42.673Z,174.37
2022-12-05T14:55:41.016Z,173.38
2022-12-05T14:58:46.425Z,194.13
2022-12-05T15:01:50.483Z,192.87
2022-12-05T15:04:55.701Z,173.95
2022-12-05T15:07:55.679Z,178.87
2022-12-05T15:10:59.029Z,180.60
2022-12-05T15:14:15.278Z,178.25
2022-12-05T15:17:19.217Z,164.37
2022-12-05T15:20:40.408Z,183.17
2022-12-05T15:23:45.255Z,182.37
2022-12-05T15:26:49.903Z,155.70
2022-12-05T15:29:48.414Z,163.10
2022-12-05T15:32:46.409Z,165.70
2022-12-05T15:35:51.418Z,163.10
2022-12-05T15:38:50.415Z,175.33
2022-12-05T15:41:48.243Z,160.10
2022-12-05T15:44:46.135Z,165.70
2022-12-05T15:47:46.125Z,181.47
2022-12-05T15:50:48.365Z,159.73
2022-12-05T15:53:52.851Z,133.47
2022-12-05T15:57:01.839Z,143.52
2022-12-05T16:00:06.977Z,141.87
2022-12-05T16:03:16.686Z,141.73
2022-12-05T16:06:20.875Z,134.93
2022-12-05T16:09:22.589Z,123.47
2022-12-05T16:12:26.812Z,132.03
2022-12-05T16:15:28.429Z,129.20
2022-12-05T16:18:31.461Z,113.03
2022-12-05T16:21:46.692Z,111.18
2022-12-05T16:24:50.232Z,114.97
2022-12-05T16:28:17.433Z,109.53
2022-12-05T16:31:19.294Z,101.30
2022-12-05T16:34:18.720Z,106.33
2022-12-05T16:37:27.390Z,128.83
2022-12-05T16:40:25.610Z,118.33
2022-12-05T16:43:45.025Z,124.63
2022-12-05T16:46:44.227Z,115.90
2022-12-05T16:49:46.274Z,115.28
2022-12-05T16:52:44.184Z,108.60
2022-12-05T16:55:44.490Z,137.37
2022-12-05T16:58:42.608Z,113.43
2022-12-05T17:01:40.427Z,120.23
2022-12-05T17:04:39.387Z,116.27
2022-12-05T17:07:37.465Z,107.05
2022-12-05T17:10:35.470Z,100.20
2022-12-05T17:13:33.857Z,115.00
2022-12-05T17:16:31.671Z,113.47
2022-12-05T17:19:30.280Z,111.10
2022-12-05T17:22:28.685Z,125.77
2022-12-05T17:25:38.532Z,111.80
2022-12-05T17:28:36.256Z,108.80
2022-12-05T17:31:34.077Z,113.20
2022-12-05T17:34:32.145Z,125.77
2022-12-05T17:37:30.991Z,119.07
2022-12-05T17:40:28.936Z,114.63
2022-12-05T17:43:26.661Z,106.17
2022-12-05T17:46:24.797Z,119.68
2022-12-05T17:49:23.301Z,125.67
2022-12-05T17:52:22.429Z,135.87
2022-12-05T17:55:24.034Z,121.77
2022-12-05T17:58:21.795Z,138.60
2022-12-05T18:01:21.223Z,125.23
2022-12-05T18:04:23.156Z,119.47
2022-12-05T18:07:21.982Z,128.23
2022-12-05T18:10:22.560Z,122.80
2022-12-05T18:13:20.292Z,129.47
2022-12-05T18:16:19.231Z,121.07
2022-12-05T18:19:16.932Z,123.53
2022-12-05T18:22:18.521Z,131.73
2022-12-05T18:28:17.976Z,110.77
2022-12-05T18:31:18.796Z,121.78
2022-12-05T18:34:17.268Z,139.47
2022-12-05T18:37:17.037Z,118.67
2022-12-05T18:40:15.569Z,138.97
2022-12-05T18:43:13.238Z,123.70
2022-12-05T18:46:14.126Z,129.67
2022-12-05T18:49:13.594Z,150.80
2022-12-05T18:52:11.387Z,124.87
2022-12-05T18:55:17.220Z,118.23
2022-12-05T18:58:15.755Z,123.70
2022-12-05T19:01:16.021Z,122.50
2022-12-05T19:04:17.680Z,121.00
2022-12-05T19:07:16.605Z,110.80
2022-12-05T19:10:14.372Z,124.13
2022-12-05T19:13:12.095Z,102.47
2022-12-05T19:16:14.488Z,101.33
2022-12-05T19:19:14.773Z,128.13
2022-12-05T19:22:12.433Z,110.43
2022-12-05T19:25:10.329Z,114.47
2022-12-05T19:28:08.052Z,116.73
2022-12-05T19:31:09.241Z,118.50
2022-12-05T19:34:08.913Z,114.40
2022-12-05T19:37:06.919Z,120.87
2022-12-05T19:40:04.998Z,113.83
2022-12-05T19:43:04.747Z,131.30
2022-12-05T19:46:05.875Z,106.50
2022-12-05T19:49:06.924Z,111.07
2022-12-05T19:52:05.151Z,128.50
2022-12-05T19:55:02.968Z,121.10
2022-12-05T19:58:00.939Z,117.53
2022-12-05T20:01:06.730Z,108.07
2022-12-05T20:04:10.020Z,124.17
2022-12-05T20:07:07.963Z,130.20
2022-12-05T20:10:06.397Z,122.43
2022-12-05T20:13:12.842Z,110.00
2022-12-05T20:16:23.732Z,121.77
2022-12-05T20:19:21.928Z,102.20
2022-12-05T20:22:19.632Z,106.03
2022-12-05T20:25:17.678Z,117.40
2022-12-05T20:28:16.294Z,100.30
2022-12-05T20:31:18.889Z,124.20
2022-12-05T20:34:17.038Z,114.38
2022-12-05T20:37:15.168Z,84.93
2022-12-05T20:40:13.255Z,104.40
2022-12-05T20:43:10.984Z,112.40
2022-12-05T20:46:12.550Z,94.57
2022-12-05T20:49:12.399Z,109.07
2022-12-05T20:52:10.109Z,104.75
2022-12-05T20:55:08.544Z,112.28
2022-12-05T20:58:06.258Z,109.97
2022-12-05T21:01:06.872Z,102.57
2022-12-05T21:04:06.825Z,110.37
2022-12-05T21:07:04.651Z,112.17
2022-12-05T21:10:07.940Z,111.33
2022-12-05T21:13:06.241Z,114.57
2022-12-05T21:16:06.637Z,108.23
2022-12-05T21:19:04.664Z,122.63
2022-12-05T21:22:02.925Z,106.20
2022-12-05T21:25:00.825Z,106.77
2022-12-05T21:27:59.023Z,117.10
2022-12-05T21:30:56.783Z,105.20
2022-12-05T21:33:57.814Z,124.93
2022-12-05T21:36:55.535Z,99.53
2022-12-05T21:39:53.367Z,110.60
2022-12-05T21:42:51.052Z,97.90
2022-12-05T21:45:53.965Z,111.10
2022-12-05T21:48:51.982Z,100.63
2022-12-05T21:51:49.834Z,109.63
2022-12-05T21:54:47.739Z,107.53
2022-12-05T21:57:45.730Z,113.00
2022-12-05T22:00:43.845Z,118.57
2022-12-05T22:03:41.566Z,127.47
2022-12-05T22:06:39.386Z,111.80
2022-12-05T22:09:37.415Z,110.60
2022-12-05T22:12:35.600Z,110.17
2022-12-05T22:15:33.472Z,114.77
2022-12-05T22:18:31.462Z,101.30
2022-12-05T22:21:29.772Z,119.40
2022-12-05T22:24:27.628Z,114.27
2022-12-05T22:27:25.455Z,112.30
2022-12-05T22:30:23.203Z,109.90
2022-12-05T22:33:21.174Z,106.87
2022-12-05T22:36:20.430Z,109.13
2022-12-05T22:39:18.430Z,97.60
2022-12-05T22:42:16.243Z,119.33
2022-12-05T22:45:14.466Z,116.30
2022-12-05T22:48:12.466Z,114.23
2022-12-05T22:51:11.028Z,111.80
2022-12-05T22:54:09.029Z,104.40
2022-12-05T22:57:06.916Z,106.73
2022-12-05T23:00:07.153Z,100.83
2022-12-05T23:03:05.693Z,98.83
2022-12-05T23:06:11.188Z,114.70
2022-12-05T23:09:11.606Z,113.40
2022-12-05T23:12:09.587Z,110.17
2022-12-05T23:15:07.971Z,95.10
2022-12-05T23:18:06.058Z,94.80
2022-12-05T23:21:04.875Z,90.77
2022-12-05T23:24:05.199Z,101.67
2022-12-05T23:27:03.028Z,99.70
2022-12-05T23:30:01.180Z,107.07
2022-12-05T23:32:59.073Z,104.47
2022-12-05T23:35:57.201Z,92.27
2022-12-05T23:38:55.071Z,99.30
2022-12-05T23:41:53.094Z,90.72
2022-12-05T23:44:51.664Z,105.27
2022-12-05T23:47:50.358Z,100.57
2022-12-05T23:51:04.953Z,102.27
2022-12-05T23:54:03.450Z,99.43
2022-12-05T23:57:01.223Z,104.47
2022-12-05T23:59:59.464Z,94.13
